MAPA DE AEROPUERTO

INFORMACIÓN METAR y TAF


Deprecated: The each() function is deprecated. This message will be suppressed on further calls in /home/customer/www/clickair-va.com/public_html/VAM/vam/helpers/get_metar.php on line 20
METAR FOR LEBL
ADDS - METARS form results

(0321 UTC 25 May 2022)
Data provider http://aviationweather.gov/metar/data/
 
METAR text: LEBL 250300Z 31004KT 9000 -RA FEW013 FEW020CB BKN050 14/13 Q1013 NOSIG
Conditions at: LEBL (BARCELONA AIRPOR, ES) observed 0300 UTC 25 May 2022
Temperature: 14.0°C (57°F)
Dewpoint: 13.0°C (55°F) [RH = 94%]
Pressure (altimeter): 29.91 inches Hg (1013.0 mb)
Winds: from the NW (310 degrees) at 5 MPH (4 knots; 2.1 m/s)
Visibility: 6 miles ( 9 km)
Ceiling: 5000 feet AGL
Clouds: few clouds at 1300 feet AGL
few clouds at 2000 feet AGL
broken clouds at 5000 feet AGL
Weather: -RA  (light rain)

METAR text: LEBL 250230Z 27002KT 9000 RA FEW013 FEW020CB BKN050 14/13 Q1013 NOSIG
Conditions at: LEBL (BARCELONA AIRPOR, ES) observed 0230 UTC 25 May 2022
Temperature: 14.0°C (57°F)
Dewpoint: 13.0°C (55°F) [RH = 94%]
Pressure (altimeter): 29.91 inches Hg (1013.0 mb)
Winds: from the W (270 degrees) at 2 MPH (2 knots; 1.0 m/s)
Visibility: 6 miles ( 9 km)
Ceiling: 5000 feet AGL
Clouds: few clouds at 1300 feet AGL
few clouds at 2000 feet AGL
broken clouds at 5000 feet AGL
Weather: RA  (moderate rain)

Forecast for: AMD
Text: TAF AMD LEBL 250001Z 2500/2524 VRB04KT 9999 SCT025 TX22/2512Z TN15/2506Z
Forecast period: 0000 to 0400 UTC 25 May 2022
Forecast type: FROM: standard forecast or significant change
Winds: variable direction winds at 5 MPH (4 knots; 2.1 m/s)
Visibility: 6 or more miles (10+ km)
Ceiling: at least 12,000 feet AGL
Clouds: scattered clouds at 2500 feet AGL
Weather: no significant weather forecast for this period
Text: TEMPO 2500/2509 4000 SHRA FEW020CB
Forecast period: 0000 to 0900 UTC 25 May 2022
Forecast type: TEMPORARY: The following changes expected for less than half the time period
Visibility: 2.49 miles (4.01 km)
Ceiling: at least 12,000 feet AGL
Clouds: few clouds at 2000 feet AGL
Weather: SHRA  (rain showers)
Text: BECMG 2504/2506 33010KT
Forecast period: 0400 to 1600 UTC 25 May 2022
Forecast type: BECOMING: Conditions expected to become as follows by 0600 UTC 25 May 2022
Winds: from the NNW (330 degrees) at 12 MPH (10 knots; 5.1 m/s)
Visibility: 6 or more miles (10+ km)
Ceiling: at least 12,000 feet AGL
Clouds: scattered clouds at 2500 feet AGL
Weather: no significant weather forecast for this period
Text: BECMG 2516/2518 25006KT
Forecast period: 1600 UTC 25 May 2022 to 0000 UTC 26 May 2022
Forecast type: BECOMING: Conditions expected to become as follows by 1800 UTC 25 May 2022
Winds: from the WSW (250 degrees) at 7 MPH (6 knots; 3.1 m/s)
Visibility: 6 or more miles (10+ km)
Ceiling: at least 12,000 feet AGL
Clouds: scattered clouds at 2500 feet AGL
Weather: no significant weather forecast for this period